WITT/BTJ METAR and TAF weather

Enter ICAO airport designator
Station Type Date Time Source
WITT METAR UTC NOAA

Error!


Station Type Date Time Source
WITT Decoded METAR UTC NOAA

Error!

Station Type Date Time Source
WITT TAF 2019/11/18 12:00 UTC NOAA

TAF WITT 181100Z 1812/1912 13008KT 8000 SCT017 PROB30
TEMPO 1816/1820 3000 -TSRA FEW016CB

Example: see airport list